createdAt,value
2017-10-10T00:02:03.607Z,12.1
2017-10-10T00:12:47.414Z,12.0
2017-10-10T00:23:01.692Z,12.0
2017-10-10T00:33:16.260Z,12.0
2017-10-10T00:44:00.548Z,12.0
2017-10-10T00:54:44.770Z,12.0
2017-10-10T01:05:29.498Z,12.0
2017-10-10T01:15:41.502Z,12.0
2017-10-10T01:25:55.720Z,12.0
2017-10-10T01:36:08.917Z,11.9
2017-10-10T01:46:23.312Z,11.9
2017-10-10T01:56:37.437Z,11.9
2017-10-10T02:07:22.115Z,11.8
2017-10-10T02:18:06.962Z,11.8
2017-10-10T02:28:18.249Z,11.8
2017-10-10T02:38:33.205Z,11.8
2017-10-10T02:48:46.644Z,11.8
2017-10-10T02:59:00.857Z,11.8
2017-10-10T03:09:45.310Z,11.8
2017-10-10T03:19:59.033Z,11.8
2017-10-10T03:30:48.087Z,11.9
2017-10-10T03:41:00.119Z,11.9
2017-10-10T03:51:14.300Z,11.9
2017-10-10T04:01:25.558Z,11.9
2017-10-10T04:11:39.875Z,11.9
2017-10-10T04:22:24.435Z,12.0
2017-10-10T04:32:38.847Z,11.9
2017-10-10T04:42:52.969Z,12.0
2017-10-10T04:53:37.581Z,12.0
2017-10-10T05:04:29.316Z,12.0
2017-10-10T05:15:20.489Z,12.0
2017-10-10T05:26:15.082Z,12.1
2017-10-10T05:36:30.593Z,12.1
2017-10-10T06:02:05.177Z,12.1
2017-10-10T06:12:19.010Z,12.1
2017-10-10T06:22:30.397Z,12.1
2017-10-10T06:32:45.025Z,12.2
2017-10-10T06:42:58.651Z,12.2
2017-10-10T06:53:12.775Z,12.2
2017-10-10T07:03:26.476Z,12.3
2017-10-10T07:13:38.815Z,12.3
2017-10-10T07:23:52.635Z,12.4
2017-10-10T07:34:06.083Z,12.4
2017-10-10T07:44:20.238Z,12.5
2017-10-10T07:54:33.893Z,12.6
2017-10-10T08:04:45.765Z,12.7
2017-10-10T08:14:59.498Z,12.8
2017-10-10T08:25:13.301Z,12.9
2017-10-10T08:35:57.115Z,13.3
2017-10-10T08:46:41.802Z,13.5
2017-10-10T08:56:55.941Z,13.4
2017-10-10T09:07:10.402Z,13.6
2017-10-10T09:17:24.614Z,13.8
2017-10-10T09:28:09.966Z,14.7
2017-10-10T09:38:25.619Z,14.7
2017-10-10T09:48:39.670Z,15.1
2017-10-10T09:58:53.636Z,15.3
2017-10-10T10:09:07.056Z,15.6
2017-10-10T10:19:21.331Z,16.0
2017-10-10T10:29:45.053Z,16.2
2017-10-10T10:39:59.005Z,16.4
2017-10-10T10:50:12.841Z,16.6
2017-10-10T11:00:27.155Z,16.8
2017-10-10T11:10:41.981Z,17.0
2017-10-10T11:20:55.446Z,17.3
2017-10-10T11:31:06.973Z,17.5
2017-10-10T11:41:20.881Z,17.6
2017-10-10T11:51:36.303Z,17.7
2017-10-10T12:01:52.226Z,17.6
2017-10-10T12:12:13.485Z,17.5
2017-10-10T12:23:38.885Z,17.2
2017-10-10T12:34:09.867Z,17.2
2017-10-10T12:45:02.490Z,16.8
2017-10-10T12:55:46.657Z,16.8
2017-10-10T13:06:38.303Z,16.7
2017-10-10T13:17:29.335Z,16.6
2017-10-10T13:27:49.221Z,16.6
2017-10-10T13:39:15.227Z,16.3
2017-10-10T13:50:11.936Z,16.1
2017-10-10T14:00:32.641Z,16.1
2017-10-10T14:10:52.870Z,15.9
2017-10-10T14:21:12.927Z,15.8
2017-10-10T14:31:27.360Z,15.6
2017-10-10T14:42:26.280Z,15.4
2017-10-10T14:53:29.232Z,15.3
2017-10-10T15:03:47.750Z,15.3
2017-10-10T15:14:32.127Z,15.1
2017-10-10T15:25:16.257Z,15.1
2017-10-10T15:53:47.758Z,15.0
2017-10-10T16:04:36.443Z,14.9
2017-10-10T16:14:51.525Z,14.9
2017-10-10T16:25:05.439Z,14.8
2017-10-10T16:35:19.222Z,14.7
2017-10-10T16:45:32.719Z,14.7
2017-10-10T16:56:17.218Z,14.5
2017-10-10T17:07:02.260Z,14.5
2017-10-10T17:17:47.027Z,14.5
2017-10-10T17:28:31.522Z,14.4
2017-10-10T17:39:16.327Z,14.4
2017-10-10T17:49:27.422Z,14.4
2017-10-10T17:59:41.624Z,14.4
2017-10-10T18:10:26.338Z,14.3
2017-10-10T18:20:41.041Z,14.3
2017-10-10T18:31:36.435Z,14.2
2017-10-10T18:41:51.362Z,14.2
2017-10-10T18:52:06.991Z,14.2
2017-10-10T19:02:57.558Z,14.1
2017-10-10T19:13:15.848Z,14.1
2017-10-10T19:24:10.214Z,14.1
2017-10-10T19:34:26.709Z,14.1
2017-10-10T19:46:05.147Z,14.1
2017-10-10T19:57:00.357Z,14.1
2017-10-10T20:07:28.183Z,14.1
2017-10-10T20:18:20.975Z,14.1
2017-10-10T20:29:11.873Z,14.1
2017-10-10T20:39:23.497Z,14.1
2017-10-10T20:49:37.503Z,14.1
2017-10-10T20:59:49.590Z,14.1
2017-10-10T21:10:37.315Z,14.1
2017-10-10T21:20:51.750Z,14.1
2017-10-10T21:31:05.742Z,14.1
2017-10-10T21:41:19.957Z,14.1
2017-10-10T21:51:34.461Z,14.1
2017-10-10T22:01:46.344Z,14.1
2017-10-10T22:11:59.745Z,14.1
2017-10-10T22:22:44.891Z,14.1
2017-10-10T22:34:09.120Z,14.1
2017-10-10T22:44:23.468Z,14.1
2017-10-10T22:54:37.754Z,14.2
2017-10-10T23:04:52.141Z,14.2
2017-10-10T23:15:37.512Z,14.2
2017-10-10T23:25:52.904Z,14.2
2017-10-10T23:36:06.987Z,14.2
2017-10-10T23:46:21.183Z,14.2
2017-10-10T23:57:05.933Z,14.1
